sensor_id;sensor_type;location;lat;lon;timestamp;temperature;humidity
7163;DHT22;3623;47.098;15.446;2023-07-28T00:01:16;15.70;99.90
7163;DHT22;3623;47.098;15.446;2023-07-28T00:03:43;15.90;99.90
7163;DHT22;3623;47.098;15.446;2023-07-28T00:06:12;17.20;99.90
7163;DHT22;3623;47.098;15.446;2023-07-28T00:08:40;15.60;99.90
7163;DHT22;3623;47.098;15.446;2023-07-28T00:11:09;15.50;99.90
7163;DHT22;3623;47.098;15.446;2023-07-28T00:13:38;15.60;99.90
7163;DHT22;3623;47.098;15.446;2023-07-28T00:16:05;15.60;99.90
7163;DHT22;3623;47.098;15.446;2023-07-28T00:18:34;15.60;99.90
7163;DHT22;3623;47.098;15.446;2023-07-28T00:21:01;15.60;99.90
7163;DHT22;3623;47.098;15.446;2023-07-28T00:23:29;15.80;99.90
7163;DHT22;3623;47.098;15.446;2023-07-28T00:25:56;15.70;99.90
7163;DHT22;3623;47.098;15.446;2023-07-28T00:28:24;15.70;99.90
7163;DHT22;3623;47.098;15.446;2023-07-28T00:30:58;15.60;99.90
7163;DHT22;3623;47.098;15.446;2023-07-28T00:33:26;15.70;99.90
7163;DHT22;3623;47.098;15.446;2023-07-28T00:35:55;15.60;99.90
7163;DHT22;3623;47.098;15.446;2023-07-28T00:38:22;15.70;99.90
7163;DHT22;3623;47.098;15.446;2023-07-28T00:40:50;15.60;99.90
7163;DHT22;3623;47.098;15.446;2023-07-28T00:43:17;15.60;99.90
7163;DHT22;3623;47.098;15.446;2023-07-28T00:45:44;15.70;99.90
7163;DHT22;3623;47.098;15.446;2023-07-28T00:48:13;15.60;99.90
7163;DHT22;3623;47.098;15.446;2023-07-28T00:50:41;15.50;99.90
7163;DHT22;3623;47.098;15.446;2023-07-28T00:56:44;15.80;99.90
7163;DHT22;3623;47.098;15.446;2023-07-28T00:59:24;17.10;99.90
7163;DHT22;3623;47.098;15.446;2023-07-28T01:02:00;15.50;99.90
7163;DHT22;3623;47.098;15.446;2023-07-28T01:04:28;15.50;99.90
7163;DHT22;3623;47.098;15.446;2023-07-28T01:07:03;15.50;99.90
7163;DHT22;3623;47.098;15.446;2023-07-28T01:09:39;15.50;99.90
7163;DHT22;3623;47.098;15.446;2023-07-28T01:12:12;15.50;99.90
7163;DHT22;3623;47.098;15.446;2023-07-28T01:14:40;15.40;99.90
7163;DHT22;3623;47.098;15.446;2023-07-28T01:17:07;15.50;99.90
7163;DHT22;3623;47.098;15.446;2023-07-28T01:19:34;15.50;99.90
7163;DHT22;3623;47.098;15.446;2023-07-28T01:22:12;15.50;99.90
7163;DHT22;3623;47.098;15.446;2023-07-28T01:24:51;15.70;99.90
7163;DHT22;3623;47.098;15.446;2023-07-28T01:27:20;15.50;99.90
7163;DHT22;3623;47.098;15.446;2023-07-28T01:29:48;15.40;99.90
7163;DHT22;3623;47.098;15.446;2023-07-28T01:32:15;15.40;99.90
7163;DHT22;3623;47.098;15.446;2023-07-28T01:35:02;15.40;99.90
7163;DHT22;3623;47.098;15.446;2023-07-28T01:37:30;15.70;99.90
7163;DHT22;3623;47.098;15.446;2023-07-28T01:40:13;15.40;99.90
7163;DHT22;3623;47.098;15.446;2023-07-28T01:42:42;15.40;99.90
7163;DHT22;3623;47.098;15.446;2023-07-28T01:45:09;15.40;99.90
7163;DHT22;3623;47.098;15.446;2023-07-28T01:47:37;15.40;99.90
7163;DHT22;3623;47.098;15.446;2023-07-28T01:50:05;15.30;99.90
7163;DHT22;3623;47.098;15.446;2023-07-28T01:52:32;15.30;99.90
7163;DHT22;3623;47.098;15.446;2023-07-28T01:55:00;15.30;99.90
7163;DHT22;3623;47.098;15.446;2023-07-28T01:57:27;15.20;99.90
7163;DHT22;3623;47.098;15.446;2023-07-28T01:59:58;15.10;99.90
7163;DHT22;3623;47.098;15.446;2023-07-28T02:02:29;16.40;99.90
7163;DHT22;3623;47.098;15.446;2023-07-28T02:04:56;15.00;99.90
7163;DHT22;3623;47.098;15.446;2023-07-28T02:07:41;15.00;99.90
7163;DHT22;3623;47.098;15.446;2023-07-28T02:10:11;14.90;99.90
7163;DHT22;3623;47.098;15.446;2023-07-28T02:12:39;14.90;99.90
7163;DHT22;3623;47.098;15.446;2023-07-28T02:15:08;14.90;99.90
7163;DHT22;3623;47.098;15.446;2023-07-28T02:17:36;14.90;99.90
7163;DHT22;3623;47.098;15.446;2023-07-28T02:20:05;14.90;99.90
7163;DHT22;3623;47.098;15.446;2023-07-28T02:22:32;14.80;99.90
7163;DHT22;3623;47.098;15.446;2023-07-28T02:25:00;14.80;99.90
7163;DHT22;3623;47.098;15.446;2023-07-28T02:27:28;14.70;99.90
7163;DHT22;3623;47.098;15.446;2023-07-28T02:29:55;14.50;99.90
7163;DHT22;3623;47.098;15.446;2023-07-28T02:32:28;14.60;99.90
7163;DHT22;3623;47.098;15.446;2023-07-28T02:34:58;16.10;99.90
7163;DHT22;3623;47.098;15.446;2023-07-28T02:43:51;14.80;99.90
7163;DHT22;3623;47.098;15.446;2023-07-28T02:46:18;14.50;99.90
7163;DHT22;3623;47.098;15.446;2023-07-28T02:48:48;14.50;99.90
7163;DHT22;3623;47.098;15.446;2023-07-28T02:51:16;14.40;99.90
7163;DHT22;3623;47.098;15.446;2023-07-28T02:53:43;14.40;99.90
7163;DHT22;3623;47.098;15.446;2023-07-28T02:56:10;14.30;99.90
7163;DHT22;3623;47.098;15.446;2023-07-28T02:58:37;14.30;99.90
7163;DHT22;3623;47.098;15.446;2023-07-28T03:01:04;14.30;99.90
7163;DHT22;3623;47.098;15.446;2023-07-28T03:03:31;14.20;99.90
7163;DHT22;3623;47.098;15.446;2023-07-28T03:06:00;14.20;99.90
7163;DHT22;3623;47.098;15.446;2023-07-28T03:08:27;14.20;99.90
7163;DHT22;3623;47.098;15.446;2023-07-28T03:10:56;14.10;99.90
7163;DHT22;3623;47.098;15.446;2023-07-28T03:13:24;14.30;99.90
7163;DHT22;3623;47.098;15.446;2023-07-28T03:15:53;14.10;99.90
7163;DHT22;3623;47.098;15.446;2023-07-28T03:18:22;14.10;99.90
7163;DHT22;3623;47.098;15.446;2023-07-28T03:20:50;14.10;99.90
7163;DHT22;3623;47.098;15.446;2023-07-28T03:23:19;14.00;99.90
7163;DHT22;3623;47.098;15.446;2023-07-28T03:25:46;14.00;99.90
7163;DHT22;3623;47.098;15.446;2023-07-28T03:28:15;14.00;99.90
7163;DHT22;3623;47.098;15.446;2023-07-28T03:30:45;14.00;99.90
7163;DHT22;3623;47.098;15.446;2023-07-28T03:33:39;14.00;99.90
7163;DHT22;3623;47.098;15.446;2023-07-28T03:36:06;13.90;99.90
7163;DHT22;3623;47.098;15.446;2023-07-28T03:38:40;14.00;99.90
7163;DHT22;3623;47.098;15.446;2023-07-28T03:41:08;14.00;99.90
7163;DHT22;3623;47.098;15.446;2023-07-28T03:43:35;14.00;99.90
7163;DHT22;3623;47.098;15.446;2023-07-28T03:46:02;14.00;99.90
7163;DHT22;3623;47.098;15.446;2023-07-28T03:48:29;14.00;99.90
7163;DHT22;3623;47.098;15.446;2023-07-28T03:50:56;14.10;99.90
7163;DHT22;3623;47.098;15.446;2023-07-28T03:53:24;14.00;99.90
7163;DHT22;3623;47.098;15.446;2023-07-28T03:55:56;14.00;99.90
7163;DHT22;3623;47.098;15.446;2023-07-28T03:58:33;14.20;99.90
7163;DHT22;3623;47.098;15.446;2023-07-28T04:01:07;13.90;99.90
7163;DHT22;3623;47.098;15.446;2023-07-28T04:03:55;14.00;99.90
7163;DHT22;3623;47.098;15.446;2023-07-28T04:06:42;14.00;99.90
7163;DHT22;3623;47.098;15.446;2023-07-28T04:09:10;14.00;99.90
7163;DHT22;3623;47.098;15.446;2023-07-28T04:11:45;14.00;99.90
7163;DHT22;3623;47.098;15.446;2023-07-28T04:14:12;14.20;99.90
7163;DHT22;3623;47.098;15.446;2023-07-28T04:16:55;13.90;99.90
7163;DHT22;3623;47.098;15.446;2023-07-28T04:19:33;13.90;99.90
7163;DHT22;3623;47.098;15.446;2023-07-28T04:22:01;13.80;99.90
7163;DHT22;3623;47.098;15.446;2023-07-28T04:24:28;13.80;99.90
7163;DHT22;3623;47.098;15.446;2023-07-28T04:26:58;13.80;99.90
7163;DHT22;3623;47.098;15.446;2023-07-28T04:29:25;13.80;99.90
7163;DHT22;3623;47.098;15.446;2023-07-28T04:31:52;13.90;99.90
7163;DHT22;3623;47.098;15.446;2023-07-28T04:34:20;13.90;99.90
7163;DHT22;3623;47.098;15.446;2023-07-28T04:36:47;13.90;99.90
7163;DHT22;3623;47.098;15.446;2023-07-28T04:39:15;13.90;99.90
7163;DHT22;3623;47.098;15.446;2023-07-28T04:42:04;14.00;99.90
7163;DHT22;3623;47.098;15.446;2023-07-28T04:47:52;16.40;99.90
7163;DHT22;3623;47.098;15.446;2023-07-28T04:50:51;14.00;99.90
7163;DHT22;3623;47.098;15.446;2023-07-28T04:56:35;16.50;99.90
7163;DHT22;3623;47.098;15.446;2023-07-28T04:59:23;14.00;99.90
7163;DHT22;3623;47.098;15.446;2023-07-28T05:01:56;14.10;99.90
7163;DHT22;3623;47.098;15.446;2023-07-28T05:04:24;14.30;99.90
7163;DHT22;3623;47.098;15.446;2023-07-28T05:06:51;14.10;99.90
7163;DHT22;3623;47.098;15.446;2023-07-28T05:09:18;14.20;99.90
7163;DHT22;3623;47.098;15.446;2023-07-28T05:12:12;14.30;99.90
7163;DHT22;3623;47.098;15.446;2023-07-28T05:15:15;14.30;99.90
7163;DHT22;3623;47.098;15.446;2023-07-28T05:17:51;14.30;99.90
7163;DHT22;3623;47.098;15.446;2023-07-28T05:21:08;14.40;99.90
7163;DHT22;3623;47.098;15.446;2023-07-28T05:23:57;14.40;99.90
7163;DHT22;3623;47.098;15.446;2023-07-28T05:26:25;14.50;99.90
7163;DHT22;3623;47.098;15.446;2023-07-28T05:28:53;14.70;99.90
7163;DHT22;3623;47.098;15.446;2023-07-28T05:31:21;14.70;99.90
7163;DHT22;3623;47.098;15.446;2023-07-28T05:33:48;14.90;99.90
7163;DHT22;3623;47.098;15.446;2023-07-28T05:36:16;15.00;99.90
7163;DHT22;3623;47.098;15.446;2023-07-28T05:38:43;15.10;99.90
7163;DHT22;3623;47.098;15.446;2023-07-28T05:41:28;17.20;99.90
7163;DHT22;3623;47.098;15.446;2023-07-28T05:43:55;16.80;99.90
7163;DHT22;3623;47.098;15.446;2023-07-28T05:46:27;15.30;99.90
7163;DHT22;3623;47.098;15.446;2023-07-28T05:48:54;15.40;99.90
7163;DHT22;3623;47.098;15.446;2023-07-28T05:51:22;15.50;99.90
7163;DHT22;3623;47.098;15.446;2023-07-28T05:53:49;15.60;99.90
7163;DHT22;3623;47.098;15.446;2023-07-28T05:56:27;15.70;99.90
7163;DHT22;3623;47.098;15.446;2023-07-28T05:58:55;15.80;99.90
7163;DHT22;3623;47.098;15.446;2023-07-28T06:01:27;15.90;99.90
7163;DHT22;3623;47.098;15.446;2023-07-28T06:03:55;16.00;99.90
7163;DHT22;3623;47.098;15.446;2023-07-28T06:06:24;16.20;99.90
7163;DHT22;3623;47.098;15.446;2023-07-28T06:08:52;16.30;99.90
7163;DHT22;3623;47.098;15.446;2023-07-28T06:11:20;16.30;99.90
7163;DHT22;3623;47.098;15.446;2023-07-28T06:13:48;16.40;99.90
7163;DHT22;3623;47.098;15.446;2023-07-28T06:16:19;16.50;99.90
7163;DHT22;3623;47.098;15.446;2023-07-28T06:18:48;16.50;99.90
7163;DHT22;3623;47.098;15.446;2023-07-28T06:21:20;16.60;99.90
7163;DHT22;3623;47.098;15.446;2023-07-28T06:23:50;16.70;99.90
7163;DHT22;3623;47.098;15.446;2023-07-28T06:26:17;18.40;99.90
7163;DHT22;3623;47.098;15.446;2023-07-28T06:29:05;17.00;99.90
7163;DHT22;3623;47.098;15.446;2023-07-28T06:31:35;18.20;99.90
7163;DHT22;3623;47.098;15.446;2023-07-28T06:34:04;17.40;99.90
7163;DHT22;3623;47.098;15.446;2023-07-28T06:36:32;17.50;99.90
7163;DHT22;3623;47.098;15.446;2023-07-28T06:38:59;17.60;99.90
7163;DHT22;3623;47.098;15.446;2023-07-28T06:41:26;17.70;99.90
7163;DHT22;3623;47.098;15.446;2023-07-28T06:43:54;17.90;99.90
7163;DHT22;3623;47.098;15.446;2023-07-28T06:46:21;17.90;99.90
7163;DHT22;3623;47.098;15.446;2023-07-28T06:48:48;18.00;99.90
7163;DHT22;3623;47.098;15.446;2023-07-28T06:51:29;18.20;99.90
7163;DHT22;3623;47.098;15.446;2023-07-28T06:54:02;18.30;99.90
7163;DHT22;3623;47.098;15.446;2023-07-28T06:56:29;18.60;99.90
7163;DHT22;3623;47.098;15.446;2023-07-28T06:58:57;18.50;99.90
7163;DHT22;3623;47.098;15.446;2023-07-28T07:01:24;18.60;99.90
7163;DHT22;3623;47.098;15.446;2023-07-28T07:03:51;18.70;99.90
7163;DHT22;3623;47.098;15.446;2023-07-28T07:06:28;18.80;99.90
7163;DHT22;3623;47.098;15.446;2023-07-28T07:08:55;18.90;99.90
7163;DHT22;3623;47.098;15.446;2023-07-28T07:11:23;18.90;99.90
7163;DHT22;3623;47.098;15.446;2023-07-28T07:13:53;19.00;99.90
7163;DHT22;3623;47.098;15.446;2023-07-28T07:16:45;19.20;99.90
7163;DHT22;3623;47.098;15.446;2023-07-28T07:19:46;21.30;99.90
7163;DHT22;3623;47.098;15.446;2023-07-28T07:22:19;20.00;99.90
7163;DHT22;3623;47.098;15.446;2023-07-28T07:25:11;20.40;99.90
7163;DHT22;3623;47.098;15.446;2023-07-28T07:27:38;20.50;99.90
7163;DHT22;3623;47.098;15.446;2023-07-28T07:30:09;20.70;99.90
7163;DHT22;3623;47.098;15.446;2023-07-28T07:33:08;20.70;99.90
7163;DHT22;3623;47.098;15.446;2023-07-28T07:35:52;20.60;99.90
7163;DHT22;3623;47.098;15.446;2023-07-28T07:38:21;20.70;99.90
7163;DHT22;3623;47.098;15.446;2023-07-28T07:40:58;20.70;99.90
7163;DHT22;3623;47.098;15.446;2023-07-28T07:46:05;21.30;99.90
7163;DHT22;3623;47.098;15.446;2023-07-28T07:48:32;21.90;99.90
7163;DHT22;3623;47.098;15.446;2023-07-28T07:50:59;22.00;99.90
7163;DHT22;3623;47.098;15.446;2023-07-28T07:53:28;21.90;99.90
7163;DHT22;3623;47.098;15.446;2023-07-28T07:55:55;21.80;99.90
7163;DHT22;3623;47.098;15.446;2023-07-28T07:58:22;21.80;99.90
7163;DHT22;3623;47.098;15.446;2023-07-28T08:00:50;21.90;99.90
7163;DHT22;3623;47.098;15.446;2023-07-28T08:03:17;21.90;99.90
7163;DHT22;3623;47.098;15.446;2023-07-28T08:05:47;21.80;99.90
7163;DHT22;3623;47.098;15.446;2023-07-28T08:08:28;21.80;99.90
7163;DHT22;3623;47.098;15.446;2023-07-28T08:10:56;21.50;99.90
7163;DHT22;3623;47.098;15.446;2023-07-28T08:13:23;21.60;99.90
7163;DHT22;3623;47.098;15.446;2023-07-28T08:15:50;21.70;99.90
7163;DHT22;3623;47.098;15.446;2023-07-28T08:18:17;21.50;99.90
7163;DHT22;3623;47.098;15.446;2023-07-28T08:21:01;21.70;99.90
7163;DHT22;3623;47.098;15.446;2023-07-28T08:23:37;21.80;99.90
7163;DHT22;3623;47.098;15.446;2023-07-28T08:26:33;21.90;99.90
7163;DHT22;3623;47.098;15.446;2023-07-28T08:29:20;21.80;99.90
7163;DHT22;3623;47.098;15.446;2023-07-28T08:35:02;24.20;99.90
7163;DHT22;3623;47.098;15.446;2023-07-28T08:37:38;22.00;99.90
7163;DHT22;3623;47.098;15.446;2023-07-28T08:40:10;22.10;99.90
7163;DHT22;3623;47.098;15.446;2023-07-28T08:42:39;22.10;99.90
7163;DHT22;3623;47.098;15.446;2023-07-28T08:45:07;22.00;99.90
7163;DHT22;3623;47.098;15.446;2023-07-28T08:47:37;22.00;99.90
7163;DHT22;3623;47.098;15.446;2023-07-28T08:50:05;22.10;99.90
7163;DHT22;3623;47.098;15.446;2023-07-28T08:52:32;22.10;99.90
7163;DHT22;3623;47.098;15.446;2023-07-28T08:55:00;22.30;99.90
7163;DHT22;3623;47.098;15.446;2023-07-28T08:57:43;22.30;99.90
7163;DHT22;3623;47.098;15.446;2023-07-28T09:00:25;23.90;99.90
7163;DHT22;3623;47.098;15.446;2023-07-28T09:02:53;22.50;99.90
7163;DHT22;3623;47.098;15.446;2023-07-28T09:05:20;22.50;99.90
7163;DHT22;3623;47.098;15.446;2023-07-28T09:11:52;22.50;99.90
7163;DHT22;3623;47.098;15.446;2023-07-28T09:14:35;22.60;99.90
7163;DHT22;3623;47.098;15.446;2023-07-28T09:17:07;22.80;99.90
7163;DHT22;3623;47.098;15.446;2023-07-28T09:19:39;22.90;99.90
7163;DHT22;3623;47.098;15.446;2023-07-28T09:22:15;23.10;99.90
7163;DHT22;3623;47.098;15.446;2023-07-28T09:24:43;23.30;99.90
7163;DHT22;3623;47.098;15.446;2023-07-28T09:27:20;23.50;99.90
7163;DHT22;3623;47.098;15.446;2023-07-28T09:29:50;23.50;99.90
7163;DHT22;3623;47.098;15.446;2023-07-28T09:32:26;23.60;99.90
7163;DHT22;3623;47.098;15.446;2023-07-28T09:35:09;23.70;99.90
7163;DHT22;3623;47.098;15.446;2023-07-28T09:37:41;23.90;99.90
7163;DHT22;3623;47.098;15.446;2023-07-28T09:40:09;23.90;99.90
7163;DHT22;3623;47.098;15.446;2023-07-28T09:42:40;24.00;99.90
7163;DHT22;3623;47.098;15.446;2023-07-28T09:45:13;24.10;99.90
7163;DHT22;3623;47.098;15.446;2023-07-28T09:47:41;24.30;99.90
7163;DHT22;3623;47.098;15.446;2023-07-28T09:50:15;24.30;99.90
7163;DHT22;3623;47.098;15.446;2023-07-28T09:52:46;24.20;99.90
7163;DHT22;3623;47.098;15.446;2023-07-28T09:55:14;24.10;99.90
7163;DHT22;3623;47.098;15.446;2023-07-28T09:57:45;24.00;99.90
7163;DHT22;3623;47.098;15.446;2023-07-28T10:00:16;24.20;99.90
7163;DHT22;3623;47.098;15.446;2023-07-28T10:02:45;24.20;99.90
7163;DHT22;3623;47.098;15.446;2023-07-28T10:05:15;24.20;99.90
7163;DHT22;3623;47.098;15.446;2023-07-28T10:07:48;24.50;99.90
7163;DHT22;3623;47.098;15.446;2023-07-28T10:10:23;24.70;99.90
7163;DHT22;3623;47.098;15.446;2023-07-28T10:12:54;25.00;99.90
7163;DHT22;3623;47.098;15.446;2023-07-28T10:15:30;25.00;99.90
7163;DHT22;3623;47.098;15.446;2023-07-28T10:18:15;25.20;99.90
7163;DHT22;3623;47.098;15.446;2023-07-28T10:20:43;25.20;99.90
7163;DHT22;3623;47.098;15.446;2023-07-28T10:23:59;25.50;99.90
7163;DHT22;3623;47.098;15.446;2023-07-28T10:26:36;27.70;99.90
7163;DHT22;3623;47.098;15.446;2023-07-28T10:29:12;26.90;99.90
7163;DHT22;3623;47.098;15.446;2023-07-28T10:31:52;27.30;99.90
7163;DHT22;3623;47.098;15.446;2023-07-28T10:34:19;28.40;99.90
7163;DHT22;3623;47.098;15.446;2023-07-28T10:36:56;29.50;99.90
7163;DHT22;3623;47.098;15.446;2023-07-28T10:42:30;31.80;99.90
7163;DHT22;3623;47.098;15.446;2023-07-28T10:45:17;33.00;96.20
7163;DHT22;3623;47.098;15.446;2023-07-28T10:48:12;33.70;96.00
7163;DHT22;3623;47.098;15.446;2023-07-28T10:50:40;33.70;94.00
7163;DHT22;3623;47.098;15.446;2023-07-28T10:55:56;34.30;91.20
7163;DHT22;3623;47.098;15.446;2023-07-28T10:59:25;34.70;90.30
7163;DHT22;3623;47.098;15.446;2023-07-28T11:13:01;35.30;87.60
7163;DHT22;3623;47.098;15.446;2023-07-28T11:29:33;33.70;90.60
7163;DHT22;3623;47.098;15.446;2023-07-28T11:52:14;34.80;88.80
7163;DHT22;3623;47.098;15.446;2023-07-28T11:54:43;35.10;89.40
7163;DHT22;3623;47.098;15.446;2023-07-28T12:01:12;36.80;88.70
7163;DHT22;3623;47.098;15.446;2023-07-28T12:23:18;37.00;77.00
7163;DHT22;3623;47.098;15.446;2023-07-28T12:25:47;36.80;77.20
7163;DHT22;3623;47.098;15.446;2023-07-28T12:33:41;37.10;82.80
7163;DHT22;3623;47.098;15.446;2023-07-28T12:41:22;36.00;79.10
7163;DHT22;3623;47.098;15.446;2023-07-28T12:47:33;36.70;83.90
7163;DHT22;3623;47.098;15.446;2023-07-28T12:51:31;37.90;82.60
7163;DHT22;3623;47.098;15.446;2023-07-28T12:54:53;37.90;77.30
7163;DHT22;3623;47.098;15.446;2023-07-28T13:05:58;38.00;78.30
7163;DHT22;3623;47.098;15.446;2023-07-28T13:11:28;38.10;82.20
7163;DHT22;3623;47.098;15.446;2023-07-28T13:15:01;38.20;79.40
7163;DHT22;3623;47.098;15.446;2023-07-28T13:20:52;36.80;81.30
7163;DHT22;3623;47.098;15.446;2023-07-28T13:23:20;38.00;83.70
7163;DHT22;3623;47.098;15.446;2023-07-28T13:28:55;38.10;79.00
7163;DHT22;3623;47.098;15.446;2023-07-28T13:32:30;38.20;78.20
7163;DHT22;3623;47.098;15.446;2023-07-28T13:42:36;37.90;77.00
7163;DHT22;3623;47.098;15.446;2023-07-28T13:45:05;36.90;85.60
7163;DHT22;3623;47.098;15.446;2023-07-28T13:47:33;36.70;81.90
7163;DHT22;3623;47.098;15.446;2023-07-28T13:50:01;35.60;81.00
7163;DHT22;3623;47.098;15.446;2023-07-28T13:52:41;34.40;84.90
7163;DHT22;3623;47.098;15.446;2023-07-28T13:56:31;34.00;83.60
7163;DHT22;3623;47.098;15.446;2023-07-28T15:15:29;32.20;83.60
7163;DHT22;3623;47.098;15.446;2023-07-28T15:17:56;31.90;84.20
7163;DHT22;3623;47.098;15.446;2023-07-28T15:20:23;31.40;89.30
7163;DHT22;3623;47.098;15.446;2023-07-28T15:22:50;31.00;90.50
7163;DHT22;3623;47.098;15.446;2023-07-28T15:25:17;31.20;91.20
7163;DHT22;3623;47.098;15.446;2023-07-28T15:27:44;30.90;91.30
7163;DHT22;3623;47.098;15.446;2023-07-28T15:30:12;31.00;92.50
7163;DHT22;3623;47.098;15.446;2023-07-28T15:32:41;30.70;92.30
7163;DHT22;3623;47.098;15.446;2023-07-28T15:35:08;30.60;92.10
7163;DHT22;3623;47.098;15.446;2023-07-28T15:37:36;30.50;92.50
7163;DHT22;3623;47.098;15.446;2023-07-28T15:40:04;30.50;93.10
7163;DHT22;3623;47.098;15.446;2023-07-28T15:42:32;30.40;92.50
7163;DHT22;3623;47.098;15.446;2023-07-28T15:44:59;30.50;93.40
7163;DHT22;3623;47.098;15.446;2023-07-28T15:47:26;30.50;92.80
7163;DHT22;3623;47.098;15.446;2023-07-28T15:49:57;29.80;92.30
7163;DHT22;3623;47.098;15.446;2023-07-28T15:52:24;29.70;93.40
7163;DHT22;3623;47.098;15.446;2023-07-28T15:54:51;29.40;93.60
7163;DHT22;3623;47.098;15.446;2023-07-28T15:57:18;29.30;94.30
7163;DHT22;3623;47.098;15.446;2023-07-28T15:59:45;29.10;94.80
7163;DHT22;3623;47.098;15.446;2023-07-28T16:02:12;28.90;95.50
7163;DHT22;3623;47.098;15.446;2023-07-28T16:04:40;28.90;95.10
7163;DHT22;3623;47.098;15.446;2023-07-28T16:07:08;28.90;96.80
7163;DHT22;3623;47.098;15.446;2023-07-28T16:09:35;28.70;95.70
7163;DHT22;3623;47.098;15.446;2023-07-28T16:12:03;28.30;96.30
7163;DHT22;3623;47.098;15.446;2023-07-28T16:14:30;28.20;96.10
7163;DHT22;3623;47.098;15.446;2023-07-28T16:16:57;28.20;97.20
7163;DHT22;3623;47.098;15.446;2023-07-28T16:19:24;28.10;97.10
7163;DHT22;3623;47.098;15.446;2023-07-28T16:21:51;28.00;97.10
7163;DHT22;3623;47.098;15.446;2023-07-28T16:24:21;27.90;98.40
7163;DHT22;3623;47.098;15.446;2023-07-28T16:26:48;27.90;96.90
7163;DHT22;3623;47.098;15.446;2023-07-28T16:29:15;27.70;97.20
7163;DHT22;3623;47.098;15.446;2023-07-28T16:31:42;27.60;97.40
7163;DHT22;3623;47.098;15.446;2023-07-28T16:34:09;27.40;98.80
7163;DHT22;3623;47.098;15.446;2023-07-28T16:36:36;27.30;98.30
7163;DHT22;3623;47.098;15.446;2023-07-28T16:39:03;27.20;98.60
7163;DHT22;3623;47.098;15.446;2023-07-28T16:41:33;27.00;98.00
7163;DHT22;3623;47.098;15.446;2023-07-28T16:44:00;26.90;98.30
7163;DHT22;3623;47.098;15.446;2023-07-28T16:46:28;26.80;98.10
7163;DHT22;3623;47.098;15.446;2023-07-28T16:48:55;26.70;98.10
7163;DHT22;3623;47.098;15.446;2023-07-28T16:51:22;26.60;98.80
7163;DHT22;3623;47.098;15.446;2023-07-28T16:53:49;26.50;99.90
7163;DHT22;3623;47.098;15.446;2023-07-28T16:56:16;26.40;99.90
7163;DHT22;3623;47.098;15.446;2023-07-28T16:58:45;26.30;99.90
7163;DHT22;3623;47.098;15.446;2023-07-28T17:01:12;26.20;99.90
7163;DHT22;3623;47.098;15.446;2023-07-28T17:03:39;26.10;99.90
7163;DHT22;3623;47.098;15.446;2023-07-28T17:06:06;25.90;99.90
7163;DHT22;3623;47.098;15.446;2023-07-28T17:08:33;25.70;99.90
7163;DHT22;3623;47.098;15.446;2023-07-28T17:11:00;25.50;99.90
7163;DHT22;3623;47.098;15.446;2023-07-28T17:13:27;25.20;99.90
7163;DHT22;3623;47.098;15.446;2023-07-28T17:15:56;24.80;99.90
7163;DHT22;3623;47.098;15.446;2023-07-28T17:18:23;24.40;99.90
7163;DHT22;3623;47.098;15.446;2023-07-28T17:20:50;24.40;99.90
7163;DHT22;3623;47.098;15.446;2023-07-28T17:23:18;23.90;99.90
7163;DHT22;3623;47.098;15.446;2023-07-28T17:25:45;23.70;99.90
7163;DHT22;3623;47.098;15.446;2023-07-28T17:28:12;23.60;99.90
7163;DHT22;3623;47.098;15.446;2023-07-28T17:30:39;23.60;99.90
7163;DHT22;3623;47.098;15.446;2023-07-28T17:33:08;23.50;99.90
7163;DHT22;3623;47.098;15.446;2023-07-28T17:35:35;23.40;99.90
7163;DHT22;3623;47.098;15.446;2023-07-28T17:38:02;23.30;99.90
7163;DHT22;3623;47.098;15.446;2023-07-28T17:40:29;23.20;99.90
7163;DHT22;3623;47.098;15.446;2023-07-28T17:42:56;23.00;99.90
7163;DHT22;3623;47.098;15.446;2023-07-28T17:45:23;22.90;99.90
7163;DHT22;3623;47.098;15.446;2023-07-28T17:47:50;22.80;99.90
7163;DHT22;3623;47.098;15.446;2023-07-28T17:50:18;22.70;99.90
7163;DHT22;3623;47.098;15.446;2023-07-28T17:52:46;22.70;99.90
7163;DHT22;3623;47.098;15.446;2023-07-28T17:55:15;22.80;99.90
7163;DHT22;3623;47.098;15.446;2023-07-28T17:57:42;22.90;99.90
7163;DHT22;3623;47.098;15.446;2023-07-28T18:00:10;23.00;99.90
7163;DHT22;3623;47.098;15.446;2023-07-28T18:02:38;22.90;99.90
7163;DHT22;3623;47.098;15.446;2023-07-28T18:05:05;22.60;99.90
7163;DHT22;3623;47.098;15.446;2023-07-28T18:07:36;22.30;99.90
7163;DHT22;3623;47.098;15.446;2023-07-28T18:10:03;22.20;99.90
7163;DHT22;3623;47.098;15.446;2023-07-28T18:12:30;22.10;99.90
7163;DHT22;3623;47.098;15.446;2023-07-28T18:14:58;22.20;99.90
7163;DHT22;3623;47.098;15.446;2023-07-28T18:17:25;22.10;99.90
7163;DHT22;3623;47.098;15.446;2023-07-28T18:19:53;22.00;99.90
7163;DHT22;3623;47.098;15.446;2023-07-28T18:22:20;22.20;99.90
7163;DHT22;3623;47.098;15.446;2023-07-28T18:24:48;22.00;99.90
7163;DHT22;3623;47.098;15.446;2023-07-28T18:27:15;21.80;99.90
7163;DHT22;3623;47.098;15.446;2023-07-28T18:29:42;21.70;99.90
7163;DHT22;3623;47.098;15.446;2023-07-28T18:32:10;21.70;99.90
7163;DHT22;3623;47.098;15.446;2023-07-28T18:34:37;21.50;99.90
7163;DHT22;3623;47.098;15.446;2023-07-28T18:37:04;21.50;99.90
7163;DHT22;3623;47.098;15.446;2023-07-28T18:39:31;21.50;99.90
7163;DHT22;3623;47.098;15.446;2023-07-28T18:42:01;21.50;99.90
7163;DHT22;3623;47.098;15.446;2023-07-28T18:44:28;21.50;99.90
7163;DHT22;3623;47.098;15.446;2023-07-28T18:46:55;21.50;99.90
7163;DHT22;3623;47.098;15.446;2023-07-28T18:49:22;21.50;99.90
7163;DHT22;3623;47.098;15.446;2023-07-28T18:51:49;21.50;99.90
7163;DHT22;3623;47.098;15.446;2023-07-28T18:54:16;21.40;99.90
7163;DHT22;3623;47.098;15.446;2023-07-28T18:56:43;21.40;99.90
7163;DHT22;3623;47.098;15.446;2023-07-28T18:59:12;21.30;99.90
7163;DHT22;3623;47.098;15.446;2023-07-28T19:01:39;21.10;99.90
7163;DHT22;3623;47.098;15.446;2023-07-28T19:04:06;21.00;99.90
7163;DHT22;3623;47.098;15.446;2023-07-28T19:06:33;21.00;99.90
7163;DHT22;3623;47.098;15.446;2023-07-28T19:09:00;21.00;99.90
7163;DHT22;3623;47.098;15.446;2023-07-28T19:11:27;20.90;99.90
7163;DHT22;3623;47.098;15.446;2023-07-28T19:13:54;20.90;99.90
7163;DHT22;3623;47.098;15.446;2023-07-28T19:16:23;20.90;99.90
7163;DHT22;3623;47.098;15.446;2023-07-28T19:18:50;21.00;99.90
7163;DHT22;3623;47.098;15.446;2023-07-28T19:21:18;20.90;99.90
7163;DHT22;3623;47.098;15.446;2023-07-28T19:23:46;21.00;99.90
7163;DHT22;3623;47.098;15.446;2023-07-28T19:26:13;20.90;99.90
7163;DHT22;3623;47.098;15.446;2023-07-28T19:28:41;20.90;99.90
7163;DHT22;3623;47.098;15.446;2023-07-28T19:31:08;20.90;99.90
7163;DHT22;3623;47.098;15.446;2023-07-28T19:33:36;20.90;99.90
7163;DHT22;3623;47.098;15.446;2023-07-28T19:36:06;20.90;99.90
7163;DHT22;3623;47.098;15.446;2023-07-28T19:38:33;20.80;99.90
7163;DHT22;3623;47.098;15.446;2023-07-28T19:41:00;20.80;99.90
7163;DHT22;3623;47.098;15.446;2023-07-28T19:43:27;20.70;99.90
7163;DHT22;3623;47.098;15.446;2023-07-28T19:45:54;20.70;99.90
7163;DHT22;3623;47.098;15.446;2023-07-28T19:48:22;20.70;99.90
7163;DHT22;3623;47.098;15.446;2023-07-28T19:50:51;20.70;99.90